X  Sluiten METAR luchtvaart weer gegevens      EBBR Brussels Airport
Temperatuur
14°C Temperatuur
12°C Dauwpunt
88% Vochtigheid



Wind
2 KM/U
1 MPH
0 M/S
1 KTS



Kalm
Noord
Huidig weer

Helder Helder
Luchtdruk 1012.92 (hPa) - 29.91 (inHg)
Zicht 6.2 (mijl) - 10 (km)
Vliegveld
Vliegveld code EBBR

Locatie : Brussels Airport
Afstand: 14 (km)

Metar:
EBBR 032250Z VRB01KT CAVOK 14/12 Q1013 NOSIG

Tijd: 2021-08-04 00:50 CEST